SAA25TF FACT-LFPG
Flight info
| Callsign | SAA25TF |
|---|---|
| Flight time | 2h 52m |
| Altitude | 33000 |
| Route | KODES UQ43 DUSLA DCT ETMUS UN188 APGAS/N0495F320 UN188 UTVUM/N0493F330 UN188 XALVI/N0492F340 UN190 VMO UN184 EGNAB DCT 12S010E DCT TERBA DCT KINBU/N0490F360 UZ136 TAMOK DCT MONOS DCT PAMPA UR983 OG UR866 AMSEN/N0481F380 UR866 BULIS DCT MABAP UR722 SAK UG5 KORIS DCT SVL DCT HIJ DCT RUSEM DCT SOTUK DCT USOKO DCT TLD DCT SIE DCT EDIGO DCT DGO DCT ABRIX DCT CNA DCT POI/N0482F300 DCT PEPAX UT182 KEPER |
| Aircraft | A346/H-SDE2E3FGHIJ3J4J5M1RWXY/LB1D1 |
Departure
| Time | 2026-05-08 11:24 |
|---|---|
| Airport | Cape Town International Airport (FACT) |
Arrival
| Time | 2026-05-08 14:17 |
|---|---|
| Airport | Charles de Gaulle International Airport (LFPG) |
| Time | Latitude | Longitude | Altitude | Speed | Heading |
|---|---|---|---|---|---|
| 2026-05-08 11:06 | -33.96770 | 18.59768 | 162 ft | 0 kts | 256° |
| 2026-05-08 11:12 | -33.96770 | 18.59767 | 162 ft | 0 kts | 256° |
| 2026-05-08 11:13 | -33.96769 | 18.59771 | 162 ft | 0 kts | 256° |
| 2026-05-08 11:13 | -33.96767 | 18.59782 | 190 ft | 0 kts | 256° |
| 2026-05-08 11:13 | -33.96761 | 18.59812 | 190 ft | 0 kts | 256° |
| 2026-05-08 11:14 | -33.96754 | 18.59843 | 162 ft | 0 kts | 256° |
| 2026-05-08 11:14 | -33.96748 | 18.59875 | 162 ft | 0 kts | 256° |
| 2026-05-08 11:14 | -33.96745 | 18.59888 | 162 ft | 0 kts | 256° |
| 2026-05-08 11:17 | -33.96733 | 18.59844 | 162 ft | 0 kts | 341° |
| 2026-05-08 11:17 | -33.96741 | 18.59847 | 162 ft | 0 kts | 349° |
| 2026-05-08 11:21 | -33.96683 | 18.59831 | 162 ft | 13 kts | 347° |
| 2026-05-08 11:21 | -33.96576 | 18.59798 | 162 ft | 23 kts | 344° |
| 2026-05-08 11:22 | -33.96370 | 18.59746 | 162 ft | 32 kts | 350° |
| 2026-05-08 11:22 | -33.96192 | 18.59762 | 162 ft | 25 kts | 39° |
| 2026-05-08 11:22 | -33.96070 | 18.59917 | 162 ft | 25 kts | 47° |
| 2026-05-08 11:22 | -33.96091 | 18.60036 | 162 ft | 12 kts | 171° |
| 2026-05-08 11:23 | -33.96113 | 18.60043 | 162 ft | 1 kts | 164° |
| 2026-05-08 11:23 | -33.96127 | 18.60047 | 162 ft | 7 kts | 163° |
| 2026-05-08 11:23 | -33.96388 | 18.60134 | 163 ft | 72 kts | 165° |
| 2026-05-08 11:23 | -33.97084 | 18.60354 | 164 ft | 132 kts | 165° |
| 2026-05-08 11:24 | -33.98146 | 18.60690 | 171 ft | 180 kts | 165° |
| 2026-05-08 11:24 | -33.99368 | 18.61098 | 682 ft | 181 kts | 165° |
| 2026-05-08 11:24 | -34.00609 | 18.61514 | 1267 ft | 188 kts | 165° |
| 2026-05-08 11:24 | -34.01863 | 18.61918 | 1875 ft | 191 kts | 165° |
| 2026-05-08 11:25 | -34.03142 | 18.62315 | 2447 ft | 189 kts | 165° |
| 2026-05-08 11:25 | -34.04434 | 18.62756 | 2780 ft | 198 kts | 162° |
| 2026-05-08 11:25 | -34.05778 | 18.63281 | 3122 ft | 207 kts | 160° |
| 2026-05-08 11:25 | -34.07150 | 18.63874 | 3517 ft | 212 kts | 158° |
| 2026-05-08 11:26 | -34.08531 | 18.64585 | 3850 ft | 221 kts | 144° |
| 2026-05-08 11:26 | -34.09680 | 18.65881 | 4117 ft | 233 kts | 122° |
| 2026-05-08 11:26 | -34.10483 | 18.67634 | 4451 ft | 245 kts | 117° |
| 2026-05-08 11:26 | -34.11275 | 18.69510 | 4805 ft | 257 kts | 116° |
| 2026-05-08 11:27 | -34.12096 | 18.71487 | 5215 ft | 267 kts | 116° |
| 2026-05-08 11:27 | -34.12929 | 18.73526 | 5712 ft | 274 kts | 116° |
| 2026-05-08 11:27 | -34.13768 | 18.75616 | 6273 ft | 279 kts | 116° |
| 2026-05-08 11:27 | -34.14597 | 18.77713 | 6827 ft | 282 kts | 115° |
| 2026-05-08 11:28 | -34.15445 | 18.79912 | 7390 ft | 286 kts | 112° |
| 2026-05-08 11:28 | -34.15902 | 18.82261 | 7864 ft | 292 kts | 91° |
| 2026-05-08 11:28 | -34.15622 | 18.84702 | 8331 ft | 298 kts | 70° |
| 2026-05-08 11:28 | -34.14647 | 18.86877 | 8790 ft | 302 kts | 50° |
| 2026-05-08 11:29 | -34.13061 | 18.88558 | 9275 ft | 306 kts | 29° |
| 2026-05-08 11:29 | -34.11076 | 18.89485 | 9770 ft | 309 kts | 8° |
| 2026-05-08 11:29 | -34.08933 | 18.89546 | 10305 ft | 308 kts | 353° |
| 2026-05-08 11:29 | -34.06780 | 18.89242 | 10747 ft | 315 kts | 352° |
| 2026-05-08 11:30 | -34.04561 | 18.88902 | 10973 ft | 328 kts | 352° |
| 2026-05-08 11:30 | -34.02258 | 18.88547 | 11209 ft | 340 kts | 352° |
| 2026-05-08 11:30 | -33.99863 | 18.88181 | 11441 ft | 353 kts | 352° |
| 2026-05-08 11:30 | -33.97378 | 18.87805 | 11665 ft | 366 kts | 352° |
| 2026-05-08 11:31 | -33.94813 | 18.87420 | 11898 ft | 378 kts | 352° |
| 2026-05-08 11:31 | -33.92174 | 18.87025 | 12281 ft | 385 kts | 352° |
| 2026-05-08 11:31 | -33.89515 | 18.86630 | 12828 ft | 387 kts | 352° |
| 2026-05-08 11:31 | -33.86829 | 18.86232 | 13380 ft | 390 kts | 352° |
| 2026-05-08 11:32 | -33.84123 | 18.85832 | 13894 ft | 394 kts | 352° |
| 2026-05-08 11:32 | -33.81392 | 18.85427 | 14354 ft | 397 kts | 352° |
| 2026-05-08 11:32 | -33.78639 | 18.85020 | 14839 ft | 400 kts | 352° |
| 2026-05-08 11:32 | -33.75868 | 18.84609 | 15314 ft | 402 kts | 352° |
| 2026-05-08 11:33 | -33.73085 | 18.84198 | 15799 ft | 404 kts | 352° |
| 2026-05-08 11:33 | -33.70286 | 18.83785 | 16287 ft | 407 kts | 352° |
| 2026-05-08 11:33 | -33.67466 | 18.83370 | 16753 ft | 409 kts | 352° |
| 2026-05-08 11:33 | -33.64630 | 18.82952 | 17222 ft | 412 kts | 352° |
| 2026-05-08 11:34 | -33.61775 | 18.82532 | 17684 ft | 415 kts | 352° |
| 2026-05-08 11:34 | -33.58900 | 18.82109 | 18155 ft | 417 kts | 352° |
| 2026-05-08 11:34 | -33.56012 | 18.81684 | 18594 ft | 420 kts | 352° |
| 2026-05-08 11:34 | -33.53101 | 18.81256 | 18988 ft | 422 kts | 352° |
| 2026-05-08 11:35 | -33.50177 | 18.80826 | 19368 ft | 425 kts | 352° |
| 2026-05-08 11:35 | -33.47227 | 18.80393 | 19733 ft | 428 kts | 352° |
| 2026-05-08 11:35 | -33.44262 | 18.79959 | 20106 ft | 431 kts | 352° |
| 2026-05-08 11:35 | -33.41273 | 18.79521 | 20477 ft | 434 kts | 352° |
| 2026-05-08 11:36 | -33.38270 | 18.79082 | 20861 ft | 436 kts | 351° |
| 2026-05-08 11:36 | -33.35247 | 18.78639 | 21229 ft | 439 kts | 351° |
| 2026-05-08 11:36 | -33.32249 | 18.78200 | 21590 ft | 441 kts | 351° |
| 2026-05-08 11:36 | -33.29187 | 18.77752 | 21950 ft | 444 kts | 351° |
| 2026-05-08 11:37 | -33.26083 | 18.77299 | 22256 ft | 448 kts | 351° |
| 2026-05-08 11:37 | -33.22967 | 18.76845 | 22563 ft | 452 kts | 351° |
| 2026-05-08 11:37 | -33.19840 | 18.76388 | 22897 ft | 455 kts | 351° |
| 2026-05-08 11:37 | -33.16703 | 18.75821 | 23253 ft | 456 kts | 346° |
| 2026-05-08 11:38 | -33.13615 | 18.74916 | 23570 ft | 457 kts | 341° |
| 2026-05-08 11:38 | -33.10603 | 18.73670 | 23861 ft | 458 kts | 335° |
| 2026-05-08 11:38 | -33.07657 | 18.72211 | 24142 ft | 460 kts | 334° |
| 2026-05-08 11:38 | -33.04706 | 18.70710 | 24424 ft | 462 kts | 334° |
| 2026-05-08 11:39 | -33.01733 | 18.69195 | 24687 ft | 465 kts | 334° |
| 2026-05-08 11:39 | -32.98750 | 18.67679 | 24931 ft | 468 kts | 333° |
| 2026-05-08 11:39 | -32.95739 | 18.66152 | 25189 ft | 471 kts | 333° |
| 2026-05-08 11:39 | -32.92712 | 18.64621 | 25447 ft | 474 kts | 333° |
| 2026-05-08 11:40 | -32.89671 | 18.63087 | 25710 ft | 476 kts | 333° |
| 2026-05-08 11:40 | -32.86614 | 18.61547 | 25971 ft | 479 kts | 333° |
| 2026-05-08 11:40 | -32.83536 | 18.59999 | 26213 ft | 481 kts | 333° |
| 2026-05-08 11:40 | -32.80432 | 18.58439 | 26458 ft | 483 kts | 333° |
| 2026-05-08 11:41 | -32.77324 | 18.56883 | 26688 ft | 486 kts | 333° |
| 2026-05-08 11:41 | -32.74197 | 18.55315 | 26904 ft | 488 kts | 333° |
| 2026-05-08 11:41 | -32.71062 | 18.53743 | 27123 ft | 491 kts | 333° |
| 2026-05-08 11:41 | -32.67910 | 18.52164 | 27365 ft | 493 kts | 333° |
| 2026-05-08 11:42 | -32.64744 | 18.50579 | 27595 ft | 495 kts | 332° |
| 2026-05-08 11:42 | -32.61565 | 18.48990 | 27852 ft | 497 kts | 332° |
| 2026-05-08 11:42 | -32.58371 | 18.47394 | 28086 ft | 500 kts | 332° |
| 2026-05-08 11:42 | -32.55155 | 18.45788 | 28290 ft | 502 kts | 332° |
| 2026-05-08 11:43 | -32.51937 | 18.44184 | 28596 ft | 502 kts | 332° |
| 2026-05-08 11:43 | -32.48711 | 18.42579 | 28929 ft | 502 kts | 332° |
| 2026-05-08 11:43 | -32.45526 | 18.41000 | 29102 ft | 505 kts | 331° |
| 2026-05-08 11:43 | -32.42231 | 18.39359 | 29248 ft | 509 kts | 331° |
| 2026-05-08 11:44 | -32.38961 | 18.37730 | 29508 ft | 510 kts | 331° |
| 2026-05-08 11:44 | -32.35732 | 18.36126 | 29831 ft | 510 kts | 331° |
| 2026-05-08 11:44 | -32.32418 | 18.34483 | 30140 ft | 510 kts | 330° |
| 2026-05-08 11:44 | -32.29191 | 18.32886 | 30442 ft | 509 kts | 330° |
| 2026-05-08 11:45 | -32.25927 | 18.31269 | 30745 ft | 508 kts | 330° |
| 2026-05-08 11:45 | -32.22671 | 18.29656 | 31064 ft | 506 kts | 330° |
| 2026-05-08 11:45 | -32.19427 | 18.28051 | 31368 ft | 505 kts | 330° |
| 2026-05-08 11:45 | -32.16194 | 18.26451 | 31636 ft | 504 kts | 330° |
| 2026-05-08 11:46 | -32.12952 | 18.24849 | 31857 ft | 505 kts | 330° |
| 2026-05-08 11:46 | -32.09696 | 18.23239 | 32071 ft | 505 kts | 330° |
| 2026-05-08 11:46 | -32.06452 | 18.21640 | 32272 ft | 505 kts | 330° |
| 2026-05-08 11:46 | -32.03213 | 18.20046 | 32549 ft | 504 kts | 329° |
| 2026-05-08 11:47 | -31.99998 | 18.18463 | 32821 ft | 503 kts | 329° |
| 2026-05-08 11:47 | -31.96756 | 18.16866 | 33037 ft | 503 kts | 329° |
| 2026-05-08 11:47 | -31.93523 | 18.15275 | 33066 ft | 504 kts | 329° |
| 2026-05-08 11:48 | -31.87052 | 18.12093 | 33073 ft | 504 kts | 329° |
| 2026-05-08 11:48 | -31.80583 | 18.08923 | 33060 ft | 502 kts | 329° |
| 2026-05-08 11:49 | -31.47718 | 17.92880 | 33065 ft | 497 kts | 329° |
| 2026-05-08 11:49 | -31.06868 | 17.73101 | 33030 ft | 492 kts | 329° |
| 2026-05-08 11:50 | -30.66034 | 17.53519 | 33059 ft | 487 kts | 329° |
| 2026-05-08 11:50 | -30.26753 | 17.34845 | 33032 ft | 483 kts | 329° |
| 2026-05-08 11:50 | -30.05742 | 17.24931 | 33446 ft | 482 kts | 329° |
| 2026-05-08 11:51 | -29.85239 | 17.15291 | 33043 ft | 483 kts | 330° |
| 2026-05-08 11:51 | -29.44436 | 16.96240 | 33031 ft | 481 kts | 330° |
| 2026-05-08 11:52 | -29.04149 | 16.77593 | 32999 ft | 481 kts | 330° |
| 2026-05-08 11:52 | -28.63319 | 16.58853 | 33044 ft | 478 kts | 331° |
| 2026-05-08 11:53 | -28.23695 | 16.41779 | 32992 ft | 481 kts | 335° |
| 2026-05-08 11:53 | -27.80655 | 16.26711 | 33003 ft | 480 kts | 335° |
| 2026-05-08 11:54 | -27.37798 | 16.11812 | 32982 ft | 478 kts | 334° |
| 2026-05-08 11:54 | -26.97212 | 15.97815 | 32972 ft | 476 kts | 334° |
| 2026-05-08 11:55 | -26.54447 | 15.83177 | 32936 ft | 475 kts | 334° |
| 2026-05-08 11:55 | -26.12911 | 15.68961 | 32939 ft | 472 kts | 333° |
| 2026-05-08 11:56 | -25.80204 | 15.57838 | 32942 ft | 472 kts | 333° |
| 2026-05-08 11:56 | -25.64644 | 15.52570 | 32938 ft | 472 kts | 333° |
| 2026-05-08 11:57 | -25.33279 | 15.41993 | 32945 ft | 472 kts | 334° |
| 2026-05-08 11:57 | -24.91408 | 15.27965 | 32940 ft | 473 kts | 334° |
| 2026-05-08 11:58 | -24.49516 | 15.14026 | 32948 ft | 473 kts | 334° |
| 2026-05-08 11:58 | -24.09961 | 15.00955 | 32956 ft | 474 kts | 334° |
| 2026-05-08 11:59 | -23.46348 | 14.80109 | 32954 ft | 477 kts | 334° |
| 2026-05-08 11:59 | -23.04444 | 14.66491 | 32953 ft | 480 kts | 334° |
| 2026-05-08 12:00 | -22.65461 | 14.48499 | 33116 ft | 476 kts | 327° |
| 2026-05-08 12:00 | -22.45041 | 14.38589 | 34885 ft | 468 kts | 326° |
| 2026-05-08 12:00 | -22.24918 | 14.28846 | 34970 ft | 467 kts | 327° |
| 2026-05-08 12:01 | -21.87841 | 14.10975 | 34975 ft | 469 kts | 327° |
| 2026-05-08 12:01 | -21.47560 | 13.91674 | 34965 ft | 471 kts | 327° |
| 2026-05-08 12:02 | -21.08364 | 13.73004 | 34964 ft | 472 kts | 328° |
| 2026-05-08 12:02 | -20.69006 | 13.54368 | 34966 ft | 473 kts | 328° |
| 2026-05-08 12:03 | -20.28241 | 13.35176 | 34932 ft | 473 kts | 329° |
| 2026-05-08 12:03 | -19.90604 | 13.17552 | 34963 ft | 473 kts | 330° |
| 2026-05-08 12:04 | -19.50493 | 12.98877 | 34967 ft | 472 kts | 330° |
| 2026-05-08 12:04 | -19.09926 | 12.80090 | 34959 ft | 470 kts | 330° |
| 2026-05-08 12:05 | -18.70724 | 12.62030 | 34960 ft | 472 kts | 330° |
| 2026-05-08 12:05 | -18.29619 | 12.43192 | 34944 ft | 474 kts | 331° |
| 2026-05-08 12:06 | -17.90788 | 12.25484 | 34950 ft | 475 kts | 332° |
| 2026-05-08 12:06 | -17.50732 | 12.07308 | 34949 ft | 476 kts | 332° |
| 2026-05-08 12:07 | -17.09255 | 11.88580 | 34958 ft | 478 kts | 333° |
| 2026-05-08 12:07 | -16.70195 | 11.71026 | 34956 ft | 479 kts | 333° |
| 2026-05-08 12:08 | -16.28498 | 11.52372 | 34963 ft | 478 kts | 333° |
| 2026-05-08 12:08 | -15.87191 | 11.33978 | 34959 ft | 477 kts | 333° |
| 2026-05-08 12:09 | -15.48585 | 11.16861 | 34965 ft | 477 kts | 333° |
| 2026-05-08 12:09 | -15.07443 | 10.98697 | 34964 ft | 477 kts | 333° |
| 2026-05-08 12:10 | -14.67847 | 10.81286 | 34957 ft | 477 kts | 333° |
| 2026-05-08 12:10 | -14.27223 | 10.63495 | 34961 ft | 479 kts | 333° |
| 2026-05-08 12:11 | -13.85939 | 10.45487 | 34962 ft | 480 kts | 333° |
| 2026-05-08 12:11 | -13.46251 | 10.28241 | 34962 ft | 480 kts | 333° |
| 2026-05-08 12:12 | -13.04081 | 10.09985 | 34959 ft | 481 kts | 334° |
| 2026-05-08 12:12 | -12.62284 | 9.91956 | 34960 ft | 482 kts | 334° |
| 2026-05-08 12:13 | -12.21287 | 9.74334 | 34954 ft | 482 kts | 334° |
| 2026-05-08 12:13 | -11.80444 | 9.56837 | 34956 ft | 482 kts | 335° |
| 2026-05-08 12:14 | -11.40409 | 9.39743 | 34951 ft | 483 kts | 335° |
| 2026-05-08 12:14 | -10.99908 | 9.22502 | 34952 ft | 483 kts | 335° |
| 2026-05-08 12:15 | -10.59168 | 9.05212 | 34954 ft | 483 kts | 335° |
| 2026-05-08 12:15 | -10.20106 | 8.88680 | 34952 ft | 482 kts | 335° |
| 2026-05-08 12:16 | -9.78873 | 8.71278 | 34945 ft | 483 kts | 335° |
| 2026-05-08 12:16 | -9.38586 | 8.54319 | 34946 ft | 483 kts | 335° |
| 2026-05-08 12:17 | -8.98998 | 8.37698 | 34950 ft | 485 kts | 336° |
| 2026-05-08 12:17 | -8.56491 | 8.19892 | 34943 ft | 489 kts | 336° |
| 2026-05-08 12:18 | -8.16455 | 8.03164 | 34942 ft | 490 kts | 336° |
| 2026-05-08 12:18 | -7.74424 | 7.85635 | 34940 ft | 490 kts | 336° |
| 2026-05-08 12:19 | -7.32003 | 7.67983 | 34942 ft | 492 kts | 336° |
| 2026-05-08 12:19 | -6.93877 | 7.52154 | 34943 ft | 492 kts | 337° |
| 2026-05-08 12:20 | -6.51568 | 7.34628 | 34940 ft | 493 kts | 338° |
| 2026-05-08 12:20 | -6.09556 | 7.17248 | 34940 ft | 495 kts | 338° |
| 2026-05-08 12:21 | -5.69396 | 7.00663 | 34937 ft | 493 kts | 338° |
| 2026-05-08 12:21 | -5.26850 | 6.83107 | 34940 ft | 493 kts | 339° |
| 2026-05-08 12:22 | -4.86855 | 6.66640 | 34935 ft | 492 kts | 339° |
| 2026-05-08 12:22 | -4.44795 | 6.49347 | 34935 ft | 491 kts | 339° |
| 2026-05-08 12:23 | -4.03678 | 6.32460 | 34934 ft | 491 kts | 339° |
| 2026-05-08 12:23 | -3.64526 | 6.16397 | 34936 ft | 490 kts | 339° |
| 2026-05-08 12:24 | -3.24484 | 5.99984 | 34937 ft | 489 kts | 339° |
| 2026-05-08 12:24 | -2.84077 | 5.83436 | 34935 ft | 488 kts | 339° |
| 2026-05-08 12:25 | -2.45138 | 5.67500 | 34937 ft | 488 kts | 340° |
| 2026-05-08 12:25 | -2.02918 | 5.50235 | 34929 ft | 489 kts | 340° |
| 2026-05-08 12:26 | -1.62689 | 5.33793 | 34929 ft | 489 kts | 340° |
| 2026-05-08 12:26 | -1.22383 | 5.17325 | 34929 ft | 487 kts | 340° |
| 2026-05-08 12:27 | -0.81388 | 5.00582 | 34926 ft | 486 kts | 340° |
| 2026-05-08 12:27 | -0.42383 | 4.84655 | 34924 ft | 483 kts | 340° |
| 2026-05-08 12:28 | -0.00956 | 4.67741 | 34925 ft | 483 kts | 340° |
| 2026-05-08 12:28 | 0.39872 | 4.51070 | 34922 ft | 481 kts | 340° |
| 2026-05-08 12:29 | 0.77948 | 4.35524 | 34919 ft | 480 kts | 340° |
| 2026-05-08 12:29 | 1.18159 | 4.19100 | 34921 ft | 483 kts | 341° |
| 2026-05-08 12:30 | 1.56759 | 4.03332 | 34917 ft | 483 kts | 341° |
| 2026-05-08 12:30 | 1.95629 | 3.87446 | 34915 ft | 486 kts | 341° |
| 2026-05-08 12:31 | 2.35975 | 3.70948 | 34909 ft | 484 kts | 341° |
| 2026-05-08 12:31 | 2.74093 | 3.55353 | 34910 ft | 487 kts | 341° |
| 2026-05-08 12:32 | 3.13950 | 3.39036 | 34907 ft | 489 kts | 340° |
| 2026-05-08 12:32 | 3.54717 | 3.22330 | 34902 ft | 489 kts | 340° |
| 2026-05-08 12:33 | 3.94247 | 3.06124 | 34903 ft | 488 kts | 340° |
| 2026-05-08 12:33 | 4.31545 | 2.86346 | 34899 ft | 489 kts | 334° |
| 2026-05-08 12:34 | 4.68896 | 2.65715 | 34898 ft | 489 kts | 334° |
| 2026-05-08 12:34 | 5.07208 | 2.44530 | 34896 ft | 487 kts | 333° |
| 2026-05-08 12:35 | 5.44053 | 2.24124 | 34897 ft | 490 kts | 333° |
| 2026-05-08 12:35 | 5.79485 | 2.04476 | 34893 ft | 490 kts | 333° |
| 2026-05-08 12:36 | 6.19008 | 1.82535 | 34929 ft | 492 kts | 332° |
| 2026-05-08 12:36 | 6.59514 | 1.63126 | 34948 ft | 487 kts | 336° |
| 2026-05-08 12:37 | 6.98712 | 1.45030 | 34960 ft | 484 kts | 336° |
| 2026-05-08 12:37 | 7.39124 | 1.26338 | 34972 ft | 484 kts | 336° |
| 2026-05-08 12:38 | 7.79119 | 1.07803 | 34987 ft | 489 kts | 336° |
| 2026-05-08 12:38 | 8.20198 | 0.88724 | 35000 ft | 489 kts | 335° |
| 2026-05-08 12:39 | 8.61800 | 0.69356 | 34998 ft | 489 kts | 336° |
| 2026-05-08 12:39 | 9.02402 | 0.50412 | 34992 ft | 490 kts | 336° |
| 2026-05-08 12:40 | 9.43727 | 0.31078 | 34995 ft | 491 kts | 336° |
| 2026-05-08 12:40 | 9.77499 | 0.15240 | 34987 ft | 488 kts | 336° |
| 2026-05-08 12:41 | 10.15408 | -0.02582 | 34968 ft | 487 kts | 336° |
| 2026-05-08 12:41 | 10.62639 | -0.24847 | 34966 ft | 482 kts | 335° |
| 2026-05-08 12:42 | 10.95246 | -0.40264 | 34954 ft | 481 kts | 335° |
| 2026-05-08 12:42 | 11.33267 | -0.58287 | 34945 ft | 480 kts | 335° |
| 2026-05-08 12:43 | 11.74042 | -0.77677 | 34930 ft | 478 kts | 335° |
| 2026-05-08 12:43 | 12.12926 | -0.96226 | 34906 ft | 478 kts | 335° |
| 2026-05-08 12:44 | 12.52644 | -1.15234 | 34888 ft | 478 kts | 334° |
| 2026-05-08 12:44 | 12.92658 | -1.34453 | 34877 ft | 478 kts | 334° |
| 2026-05-08 12:45 | 13.30859 | -1.52863 | 34869 ft | 477 kts | 333° |
| 2026-05-08 12:45 | 13.70936 | -1.72247 | 34844 ft | 477 kts | 333° |
| 2026-05-08 12:46 | 14.10274 | -1.91344 | 34829 ft | 476 kts | 332° |
| 2026-05-08 12:46 | 14.48887 | -2.10162 | 34808 ft | 476 kts | 332° |
| 2026-05-08 12:47 | 14.88307 | -2.29448 | 34803 ft | 476 kts | 332° |
| 2026-05-08 12:47 | 15.26158 | -2.48040 | 34810 ft | 478 kts | 332° |
| 2026-05-08 12:48 | 15.65762 | -2.67569 | 34819 ft | 476 kts | 331° |
| 2026-05-08 12:48 | 16.04809 | -2.86909 | 34812 ft | 476 kts | 330° |
| 2026-05-08 12:49 | 16.42228 | -3.05526 | 34833 ft | 476 kts | 330° |
| 2026-05-08 12:49 | 16.81461 | -3.25127 | 34860 ft | 471 kts | 329° |
| 2026-05-08 12:50 | 17.19991 | -3.44468 | 34846 ft | 471 kts | 329° |
| 2026-05-08 12:50 | 17.58541 | -3.63908 | 34848 ft | 471 kts | 329° |
| 2026-05-08 12:51 | 18.12808 | -3.91431 | 34853 ft | 474 kts | 328° |
| 2026-05-08 12:52 | 18.48951 | -4.09868 | 34848 ft | 477 kts | 328° |
| 2026-05-08 12:52 | 19.02191 | -4.37185 | 34859 ft | 479 kts | 328° |
| 2026-05-08 12:53 | 19.37459 | -4.55388 | 34858 ft | 476 kts | 327° |
| 2026-05-08 12:53 | 19.71286 | -4.72931 | 34856 ft | 476 kts | 326° |
| 2026-05-08 12:54 | 20.04492 | -4.90232 | 34861 ft | 476 kts | 325° |
| 2026-05-08 12:54 | 20.39478 | -5.08550 | 34856 ft | 477 kts | 325° |
| 2026-05-08 12:55 | 20.71901 | -5.25610 | 34853 ft | 476 kts | 324° |
| 2026-05-08 12:55 | 21.04543 | -5.42867 | 34857 ft | 473 kts | 324° |
| 2026-05-08 12:56 | 21.40828 | -5.62151 | 34852 ft | 473 kts | 324° |
| 2026-05-08 12:56 | 21.75996 | -5.80945 | 34857 ft | 472 kts | 324° |
| 2026-05-08 12:57 | 22.08804 | -5.98571 | 34860 ft | 472 kts | 324° |
| 2026-05-08 12:57 | 22.41343 | -6.16149 | 34849 ft | 473 kts | 325° |
| 2026-05-08 12:58 | 22.75687 | -6.34796 | 34853 ft | 475 kts | 326° |
| 2026-05-08 12:58 | 23.10879 | -6.54011 | 34861 ft | 474 kts | 327° |
| 2026-05-08 12:59 | 23.43750 | -6.72061 | 34865 ft | 473 kts | 327° |
| 2026-05-08 12:59 | 23.76657 | -6.90236 | 34871 ft | 473 kts | 327° |
| 2026-05-08 13:00 | 24.08119 | -7.07709 | 34888 ft | 474 kts | 327° |
| 2026-05-08 13:00 | 24.39523 | -7.25247 | 34899 ft | 475 kts | 327° |
| 2026-05-08 13:01 | 24.74227 | -7.44743 | 34907 ft | 475 kts | 327° |
| 2026-05-08 13:01 | 25.07568 | -7.63588 | 34916 ft | 475 kts | 327° |
| 2026-05-08 13:02 | 25.39660 | -7.81840 | 34916 ft | 474 kts | 326° |
| 2026-05-08 13:02 | 25.73090 | -8.00969 | 34950 ft | 473 kts | 326° |
| 2026-05-08 13:03 | 26.04503 | -8.19055 | 34941 ft | 471 kts | 326° |
| 2026-05-08 13:03 | 26.37627 | -8.38241 | 34935 ft | 467 kts | 325° |
| 2026-05-08 13:04 | 26.73767 | -8.59325 | 34928 ft | 466 kts | 324° |
| 2026-05-08 13:04 | 27.08467 | -8.79708 | 34926 ft | 465 kts | 324° |
| 2026-05-08 13:05 | 27.42228 | -8.99670 | 34916 ft | 465 kts | 324° |
| 2026-05-08 13:05 | 27.82028 | -9.09269 | 34930 ft | 522 kts | 10° |
| 2026-05-08 13:06 | 28.23656 | -8.94930 | 34900 ft | 521 kts | 9° |
| 2026-05-08 13:06 | 28.64410 | -8.80978 | 34864 ft | 522 kts | 9° |
| 2026-05-08 13:07 | 29.06321 | -8.66514 | 34841 ft | 524 kts | 9° |
| 2026-05-08 13:07 | 29.48509 | -8.51828 | 34853 ft | 524 kts | 9° |
| 2026-05-08 13:08 | 29.91847 | -8.36608 | 34916 ft | 526 kts | 10° |
| 2026-05-08 13:08 | 30.35784 | -8.21035 | 34930 ft | 527 kts | 10° |
| 2026-05-08 13:09 | 30.78914 | -8.05605 | 34959 ft | 529 kts | 10° |
| 2026-05-08 13:09 | 31.25829 | -7.88655 | 34955 ft | 532 kts | 10° |
| 2026-05-08 13:10 | 31.71066 | -7.72145 | 34934 ft | 534 kts | 10° |
| 2026-05-08 13:10 | 32.18115 | -7.54792 | 34905 ft | 537 kts | 10° |
| 2026-05-08 13:11 | 32.64517 | -7.37493 | 34892 ft | 539 kts | 10° |
| 2026-05-08 13:11 | 33.08238 | -7.21019 | 34882 ft | 543 kts | 10° |
| 2026-05-08 13:12 | 33.54830 | -7.03277 | 35501 ft | 545 kts | 11° |
| 2026-05-08 13:12 | 33.76950 | -6.94769 | 37987 ft | 531 kts | 10° |
| 2026-05-08 13:12 | 34.00182 | -6.85798 | 37929 ft | 533 kts | 10° |
| 2026-05-08 13:13 | 34.43003 | -6.69124 | 37919 ft | 536 kts | 10° |
| 2026-05-08 13:13 | 34.86013 | -6.52194 | 37921 ft | 539 kts | 9° |
| 2026-05-08 13:14 | 35.29101 | -6.35048 | 37905 ft | 540 kts | 9° |
| 2026-05-08 13:14 | 35.75436 | -6.16393 | 37904 ft | 543 kts | 9° |
| 2026-05-08 13:15 | 36.22796 | -5.97086 | 37941 ft | 542 kts | 9° |
| 2026-05-08 13:15 | 36.65956 | -5.79280 | 37919 ft | 542 kts | 10° |
| 2026-05-08 13:16 | 37.14106 | -5.59158 | 37917 ft | 540 kts | 10° |
| 2026-05-08 13:16 | 37.61922 | -5.38909 | 37943 ft | 536 kts | 11° |
| 2026-05-08 13:17 | 38.06158 | -5.19924 | 37916 ft | 531 kts | 12° |
| 2026-05-08 13:17 | 38.52942 | -4.99582 | 37905 ft | 528 kts | 13° |
| 2026-05-08 13:18 | 38.95131 | -4.80998 | 37895 ft | 519 kts | 14° |
| 2026-05-08 13:18 | 39.39230 | -4.61315 | 37895 ft | 516 kts | 15° |
| 2026-05-08 13:19 | 39.83477 | -4.40860 | 37897 ft | 517 kts | 20° |
| 2026-05-08 13:19 | 40.23201 | -4.17615 | 37923 ft | 513 kts | 21° |
| 2026-05-08 13:20 | 40.67336 | -3.91488 | 37952 ft | 511 kts | 22° |
| 2026-05-08 13:20 | 41.11519 | -3.64952 | 37939 ft | 512 kts | 23° |
| 2026-05-08 13:21 | 41.52506 | -3.39925 | 37941 ft | 512 kts | 25° |
| 2026-05-08 13:21 | 41.96046 | -3.11328 | 37921 ft | 514 kts | 26° |
| 2026-05-08 13:22 | 42.37501 | -2.83703 | 37907 ft | 512 kts | 26° |
| 2026-05-08 13:22 | 42.79442 | -2.55332 | 37899 ft | 511 kts | 27° |
| 2026-05-08 13:23 | 43.21281 | -2.26596 | 37890 ft | 505 kts | 27° |
| 2026-05-08 13:23 | 43.58910 | -2.00340 | 37880 ft | 502 kts | 28° |
| 2026-05-08 13:24 | 44.00769 | -1.72447 | 37889 ft | 496 kts | 27° |
| 2026-05-08 13:24 | 44.39224 | -1.46640 | 37906 ft | 494 kts | 27° |
| 2026-05-08 13:25 | 44.56361 | -1.35021 | 37905 ft | 492 kts | 27° |
| 2026-05-08 13:25 | 44.62518 | -1.30825 | 37911 ft | 491 kts | 27° |
| 2026-05-08 13:26 | 44.68664 | -1.26627 | 37908 ft | 491 kts | 27° |
| 2026-05-08 13:26 | 44.74814 | -1.22417 | 37907 ft | 491 kts | 27° |
| 2026-05-08 13:27 | 44.80949 | -1.18209 | 37906 ft | 490 kts | 27° |
| 2026-05-08 13:27 | 44.87078 | -1.13993 | 37898 ft | 490 kts | 26° |
| 2026-05-08 13:28 | 44.92180 | -1.10473 | 37918 ft | 490 kts | 26° |
| 2026-05-08 13:28 | 44.98305 | -1.06245 | 37915 ft | 490 kts | 26° |
| 2026-05-08 13:29 | 45.04417 | -1.02013 | 37917 ft | 489 kts | 26° |
| 2026-05-08 13:29 | 45.10534 | -0.97768 | 37921 ft | 489 kts | 26° |
| 2026-05-08 13:30 | 45.16647 | -0.93516 | 37918 ft | 489 kts | 26° |
| 2026-05-08 13:30 | 45.22763 | -0.89247 | 37928 ft | 489 kts | 26° |
| 2026-05-08 13:31 | 45.28907 | -0.84954 | 37927 ft | 489 kts | 26° |
| 2026-05-08 13:31 | 45.34972 | -0.80706 | 37928 ft | 489 kts | 26° |
| 2026-05-08 13:32 | 45.41073 | -0.76417 | 37913 ft | 489 kts | 26° |
| 2026-05-08 13:32 | 45.47209 | -0.72093 | 37920 ft | 489 kts | 26° |
| 2026-05-08 13:33 | 45.53431 | -0.67696 | 37921 ft | 489 kts | 26° |
| 2026-05-08 13:33 | 45.59533 | -0.63373 | 37929 ft | 489 kts | 26° |
| 2026-05-08 13:34 | 45.65619 | -0.59055 | 37926 ft | 488 kts | 26° |
| 2026-05-08 13:34 | 45.71714 | -0.54724 | 37920 ft | 488 kts | 26° |
| 2026-05-08 13:35 | 45.77803 | -0.50385 | 37924 ft | 489 kts | 26° |
| 2026-05-08 13:35 | 45.83888 | -0.46034 | 37917 ft | 489 kts | 25° |
| 2026-05-08 13:36 | 45.89973 | -0.41677 | 37917 ft | 488 kts | 26° |
| 2026-05-08 13:36 | 45.96052 | -0.37312 | 37918 ft | 488 kts | 26° |
| 2026-05-08 13:37 | 46.02098 | -0.32955 | 37926 ft | 489 kts | 25° |
| 2026-05-08 13:37 | 46.08224 | -0.28536 | 37923 ft | 489 kts | 25° |
| 2026-05-08 13:38 | 46.14268 | -0.24165 | 37919 ft | 489 kts | 25° |
| 2026-05-08 13:38 | 46.20355 | -0.19747 | 37935 ft | 490 kts | 25° |
| 2026-05-08 13:39 | 46.26480 | -0.15294 | 37935 ft | 490 kts | 25° |
| 2026-05-08 13:39 | 46.32541 | -0.10878 | 37935 ft | 490 kts | 25° |
| 2026-05-08 13:40 | 46.38628 | -0.06429 | 37941 ft | 490 kts | 25° |
| 2026-05-08 13:40 | 46.44728 | -0.01959 | 37939 ft | 491 kts | 25° |
| 2026-05-08 13:41 | 46.50814 | 0.02517 | 37950 ft | 491 kts | 25° |
| 2026-05-08 13:41 | 46.56910 | 0.07003 | 37953 ft | 491 kts | 25° |
| 2026-05-08 13:42 | 46.63006 | 0.11503 | 37955 ft | 492 kts | 25° |
| 2026-05-08 13:42 | 46.69132 | 0.16036 | 37954 ft | 492 kts | 25° |
| 2026-05-08 13:43 | 46.75235 | 0.20566 | 37943 ft | 492 kts | 25° |
| 2026-05-08 13:43 | 46.81336 | 0.25108 | 37949 ft | 492 kts | 25° |
| 2026-05-08 13:44 | 46.87437 | 0.29664 | 37954 ft | 492 kts | 25° |
| 2026-05-08 13:44 | 46.93531 | 0.34231 | 37901 ft | 493 kts | 25° |
| 2026-05-08 13:45 | 46.96584 | 0.36521 | 37617 ft | 491 kts | 25° |
| 2026-05-08 13:45 | 46.99622 | 0.38774 | 37340 ft | 487 kts | 22° |
| 2026-05-08 13:45 | 47.02703 | 0.40629 | 37049 ft | 482 kts | 16° |
| 2026-05-08 13:45 | 47.05942 | 0.42032 | 36728 ft | 476 kts | 9° |
| 2026-05-08 13:46 | 47.09177 | 0.42906 | 36373 ft | 471 kts | 4° |
| 2026-05-08 13:46 | 47.12387 | 0.43288 | 35907 ft | 468 kts | 358° |
| 2026-05-08 13:46 | 47.15626 | 0.43199 | 35403 ft | 464 kts | 352° |
| 2026-05-08 13:46 | 47.18824 | 0.42651 | 34869 ft | 462 kts | 348° |
| 2026-05-08 13:47 | 47.21996 | 0.41893 | 34338 ft | 461 kts | 347° |
| 2026-05-08 13:47 | 47.25159 | 0.41091 | 33762 ft | 461 kts | 347° |
| 2026-05-08 13:47 | 47.28323 | 0.40285 | 33081 ft | 462 kts | 347° |
| 2026-05-08 13:47 | 47.31496 | 0.39488 | 32412 ft | 462 kts | 347° |
| 2026-05-08 13:48 | 47.34666 | 0.38698 | 31767 ft | 463 kts | 347° |
| 2026-05-08 13:48 | 47.37846 | 0.37910 | 31126 ft | 464 kts | 347° |
| 2026-05-08 13:48 | 47.41033 | 0.37123 | 30485 ft | 465 kts | 347° |
| 2026-05-08 13:48 | 47.44221 | 0.36334 | 29803 ft | 466 kts | 347° |
| 2026-05-08 13:49 | 47.47426 | 0.35538 | 29064 ft | 466 kts | 347° |
| 2026-05-08 13:49 | 47.50621 | 0.34744 | 28371 ft | 466 kts | 347° |
| 2026-05-08 13:49 | 47.53814 | 0.33951 | 27750 ft | 465 kts | 348° |
| 2026-05-08 13:49 | 47.57018 | 0.33157 | 27363 ft | 466 kts | 348° |
| 2026-05-08 13:50 | 47.60211 | 0.32367 | 26844 ft | 463 kts | 348° |
| 2026-05-08 13:50 | 47.63372 | 0.31589 | 26382 ft | 458 kts | 348° |
| 2026-05-08 13:50 | 47.66502 | 0.30818 | 25935 ft | 453 kts | 348° |
| 2026-05-08 13:50 | 47.69599 | 0.30055 | 25502 ft | 449 kts | 348° |
| 2026-05-08 13:51 | 47.72664 | 0.29295 | 25065 ft | 444 kts | 348° |
| 2026-05-08 13:51 | 47.75696 | 0.28541 | 24644 ft | 440 kts | 348° |
| 2026-05-08 13:51 | 47.78743 | 0.28256 | 24176 ft | 440 kts | 2° |
| 2026-05-08 13:51 | 47.81738 | 0.29173 | 23802 ft | 444 kts | 18° |
| 2026-05-08 13:52 | 47.84339 | 0.31124 | 23824 ft | 448 kts | 31° |
| 2026-05-08 13:52 | 47.86854 | 0.33733 | 24002 ft | 433 kts | 33° |
| 2026-05-08 13:52 | 47.89263 | 0.36314 | 23880 ft | 420 kts | 33° |
| 2026-05-08 13:52 | 47.91606 | 0.38816 | 23748 ft | 409 kts | 33° |
| 2026-05-08 13:53 | 47.93894 | 0.41240 | 23628 ft | 397 kts | 33° |
| 2026-05-08 13:53 | 47.96132 | 0.43597 | 23266 ft | 392 kts | 32° |
| 2026-05-08 13:53 | 47.98360 | 0.45929 | 22836 ft | 389 kts | 32° |
| 2026-05-08 13:53 | 48.00566 | 0.48230 | 22430 ft | 386 kts | 32° |
| 2026-05-08 13:54 | 48.02759 | 0.50527 | 22057 ft | 383 kts | 32° |
| 2026-05-08 13:54 | 48.04943 | 0.52821 | 21675 ft | 380 kts | 32° |
| 2026-05-08 13:54 | 48.07080 | 0.55068 | 21312 ft | 377 kts | 32° |
| 2026-05-08 13:54 | 48.09215 | 0.57318 | 20943 ft | 374 kts | 32° |
| 2026-05-08 13:55 | 48.11335 | 0.59557 | 20564 ft | 371 kts | 32° |
| 2026-05-08 13:55 | 48.13439 | 0.61782 | 20210 ft | 369 kts | 32° |
| 2026-05-08 13:55 | 48.17609 | 0.66201 | 19502 ft | 365 kts | 33° |
| 2026-05-08 13:56 | 48.19669 | 0.68388 | 19148 ft | 364 kts | 33° |
| 2026-05-08 13:56 | 48.21743 | 0.70592 | 18787 ft | 362 kts | 33° |
| 2026-05-08 13:56 | 48.23799 | 0.72781 | 18452 ft | 361 kts | 33° |
| 2026-05-08 13:56 | 48.25845 | 0.74961 | 18069 ft | 360 kts | 33° |
| 2026-05-08 13:57 | 48.27881 | 0.77133 | 17689 ft | 358 kts | 33° |
| 2026-05-08 13:57 | 48.29906 | 0.79293 | 17326 ft | 355 kts | 33° |
| 2026-05-08 13:57 | 48.31914 | 0.81437 | 16983 ft | 352 kts | 33° |
| 2026-05-08 13:57 | 48.33823 | 0.83733 | 16626 ft | 352 kts | 43° |
| 2026-05-08 13:58 | 48.35398 | 0.86541 | 16288 ft | 351 kts | 55° |
| 2026-05-08 13:58 | 48.36620 | 0.89707 | 15951 ft | 349 kts | 62° |
| 2026-05-08 13:58 | 48.37726 | 0.92963 | 15610 ft | 348 kts | 63° |
| 2026-05-08 13:58 | 48.38814 | 0.96211 | 15267 ft | 347 kts | 63° |
| 2026-05-08 13:59 | 48.39906 | 0.99430 | 15017 ft | 341 kts | 62° |
| 2026-05-08 13:59 | 48.40970 | 1.02533 | 15012 ft | 326 kts | 62° |
| 2026-05-08 13:59 | 48.41998 | 1.05520 | 14840 ft | 320 kts | 62° |
| 2026-05-08 13:59 | 48.43027 | 1.08508 | 14465 ft | 320 kts | 62° |
| 2026-05-08 14:00 | 48.44049 | 1.11482 | 14147 ft | 319 kts | 62° |
| 2026-05-08 14:00 | 48.45064 | 1.14436 | 13841 ft | 316 kts | 62° |
| 2026-05-08 14:00 | 48.46073 | 1.17373 | 13523 ft | 313 kts | 62° |
| 2026-05-08 14:00 | 48.47068 | 1.20275 | 13202 ft | 310 kts | 62° |
| 2026-05-08 14:01 | 48.48051 | 1.23145 | 12908 ft | 306 kts | 62° |
| 2026-05-08 14:01 | 48.49012 | 1.25952 | 12644 ft | 303 kts | 62° |
| 2026-05-08 14:01 | 48.49984 | 1.28798 | 12355 ft | 299 kts | 62° |
| 2026-05-08 14:01 | 48.50935 | 1.31575 | 12082 ft | 296 kts | 62° |
| 2026-05-08 14:02 | 48.51885 | 1.34348 | 11912 ft | 302 kts | 62° |
| 2026-05-08 14:02 | 48.52863 | 1.37191 | 11934 ft | 307 kts | 62° |
| 2026-05-08 14:02 | 48.53850 | 1.40062 | 11957 ft | 308 kts | 62° |
| 2026-05-08 14:02 | 48.54837 | 1.42935 | 11913 ft | 308 kts | 62° |
| 2026-05-08 14:03 | 48.55811 | 1.45778 | 11557 ft | 308 kts | 62° |
| 2026-05-08 14:03 | 48.56816 | 1.48675 | 11215 ft | 306 kts | 59° |
| 2026-05-08 14:03 | 48.57978 | 1.51286 | 10905 ft | 302 kts | 50° |
| 2026-05-08 14:03 | 48.59370 | 1.53664 | 10898 ft | 302 kts | 46° |
| 2026-05-08 14:04 | 48.60818 | 1.55958 | 10924 ft | 302 kts | 45° |
| 2026-05-08 14:04 | 48.62273 | 1.58245 | 10940 ft | 303 kts | 45° |
| 2026-05-08 14:04 | 48.63729 | 1.60537 | 10958 ft | 302 kts | 45° |
| 2026-05-08 14:04 | 48.65182 | 1.62832 | 10984 ft | 302 kts | 46° |
| 2026-05-08 14:05 | 48.66633 | 1.65136 | 10987 ft | 303 kts | 46° |
| 2026-05-08 14:05 | 48.68089 | 1.67452 | 10966 ft | 303 kts | 46° |
| 2026-05-08 14:05 | 48.69538 | 1.69764 | 10773 ft | 304 kts | 46° |
| 2026-05-08 14:05 | 48.70992 | 1.72085 | 10422 ft | 302 kts | 46° |
| 2026-05-08 14:06 | 48.72430 | 1.74384 | 10137 ft | 299 kts | 46° |
| 2026-05-08 14:06 | 48.73843 | 1.76649 | 9721 ft | 291 kts | 46° |
| 2026-05-08 14:06 | 48.75207 | 1.78839 | 9475 ft | 281 kts | 46° |
| 2026-05-08 14:06 | 48.76540 | 1.80983 | 9193 ft | 276 kts | 46° |
| 2026-05-08 14:07 | 48.77849 | 1.83092 | 8951 ft | 273 kts | 46° |
| 2026-05-08 14:07 | 48.79149 | 1.85183 | 8734 ft | 272 kts | 46° |
| 2026-05-08 14:07 | 48.80443 | 1.87269 | 8473 ft | 271 kts | 46° |
| 2026-05-08 14:07 | 48.81734 | 1.89348 | 8209 ft | 268 kts | 46° |
| 2026-05-08 14:08 | 48.83010 | 1.91402 | 7957 ft | 266 kts | 46° |
| 2026-05-08 14:08 | 48.84277 | 1.93445 | 7673 ft | 265 kts | 46° |
| 2026-05-08 14:08 | 48.85542 | 1.95488 | 7391 ft | 263 kts | 46° |
| 2026-05-08 14:08 | 48.86791 | 1.97505 | 7158 ft | 261 kts | 46° |
| 2026-05-08 14:09 | 48.88016 | 1.99485 | 6939 ft | 260 kts | 46° |
| 2026-05-08 14:09 | 48.89253 | 2.01487 | 6712 ft | 259 kts | 47° |
| 2026-05-08 14:09 | 48.90472 | 2.03460 | 6498 ft | 257 kts | 47° |
| 2026-05-08 14:09 | 48.91706 | 2.05459 | 6259 ft | 255 kts | 47° |
| 2026-05-08 14:10 | 48.92919 | 2.07425 | 6011 ft | 253 kts | 47° |
| 2026-05-08 14:10 | 48.94121 | 2.09373 | 5773 ft | 249 kts | 47° |
| 2026-05-08 14:10 | 48.95301 | 2.11286 | 5531 ft | 245 kts | 47° |
| 2026-05-08 14:10 | 48.96415 | 2.13226 | 5275 ft | 241 kts | 58° |
| 2026-05-08 14:11 | 48.97040 | 2.15555 | 5076 ft | 235 kts | 80° |
| 2026-05-08 14:11 | 48.97235 | 2.17979 | 4998 ft | 227 kts | 83° |
| 2026-05-08 14:11 | 48.97411 | 2.20319 | 4946 ft | 218 kts | 84° |
| 2026-05-08 14:11 | 48.97561 | 2.22630 | 4728 ft | 220 kts | 84° |
| 2026-05-08 14:12 | 48.97692 | 2.24951 | 4373 ft | 218 kts | 85° |
| 2026-05-08 14:12 | 48.97807 | 2.27237 | 4084 ft | 216 kts | 85° |
| 2026-05-08 14:12 | 48.97917 | 2.29507 | 3830 ft | 209 kts | 85° |
| 2026-05-08 14:12 | 48.98019 | 2.31661 | 3592 ft | 198 kts | 84° |
| 2026-05-08 14:13 | 48.98235 | 2.33679 | 3390 ft | 188 kts | 76° |
| 2026-05-08 14:13 | 48.98503 | 2.35594 | 3086 ft | 184 kts | 79° |
| 2026-05-08 14:13 | 48.98626 | 2.37534 | 2754 ft | 180 kts | 83° |
| 2026-05-08 14:13 | 48.98729 | 2.39423 | 2498 ft | 175 kts | 83° |
| 2026-05-08 14:14 | 48.98809 | 2.41217 | 2305 ft | 163 kts | 84° |
| 2026-05-08 14:14 | 48.98880 | 2.42884 | 2028 ft | 153 kts | 83° |
| 2026-05-08 14:14 | 48.98983 | 2.44476 | 1706 ft | 150 kts | 81° |
| 2026-05-08 14:14 | 48.99103 | 2.46051 | 1486 ft | 150 kts | 83° |
| 2026-05-08 14:15 | 48.99183 | 2.47650 | 1305 ft | 151 kts | 86° |
| 2026-05-08 14:15 | 48.99234 | 2.49253 | 1187 ft | 152 kts | 84° |
| 2026-05-08 14:15 | 48.99292 | 2.50326 | 1115 ft | 153 kts | 82° |
| 2026-05-08 14:15 | 48.99425 | 2.52461 | 737 ft | 149 kts | 83° |
| 2026-05-08 14:16 | 48.99479 | 2.53494 | 641 ft | 147 kts | 81° |
| 2026-05-08 14:16 | 48.99566 | 2.55059 | 409 ft | 148 kts | 84° |
| 2026-05-08 14:16 | 48.99642 | 2.56571 | 370 ft | 127 kts | 85° |
| 2026-05-08 14:16 | 48.99701 | 2.57734 | 368 ft | 95 kts | 85° |
| 2026-05-08 14:17 | 48.99745 | 2.58560 | 362 ft | 54 kts | 85° |
| 2026-05-08 14:17 | 48.99817 | 2.58946 | 365 ft | 28 kts | 64° |
| 2026-05-08 14:17 | 48.99891 | 2.59187 | 366 ft | 22 kts | 65° |
| 2026-05-08 14:17 | 48.99943 | 2.59309 | 369 ft | 2 kts | 26° |
| 2026-05-08 14:18 | 48.99997 | 2.59327 | 364 ft | 11 kts | 1° |
| 2026-05-08 14:18 | 49.00056 | 2.59266 | 368 ft | 11 kts | 282° |
| 2026-05-08 14:18 | 49.00057 | 2.59132 | 368 ft | 14 kts | 266° |
| 2026-05-08 14:18 | 49.00055 | 2.58972 | 364 ft | 15 kts | 287° |
| 2026-05-08 14:19 | 49.00153 | 2.58887 | 369 ft | 18 kts | 354° |
| 2026-05-08 14:19 | 49.00289 | 2.58870 | 369 ft | 21 kts | 356° |
| 2026-05-08 14:19 | 49.00453 | 2.58853 | 368 ft | 26 kts | 356° |
| 2026-05-08 14:19 | 49.00642 | 2.58831 | 365 ft | 28 kts | 356° |
| 2026-05-08 14:20 | 49.00825 | 2.58785 | 367 ft | 19 kts | 308° |
| 2026-05-08 14:20 | 49.00843 | 2.58569 | 367 ft | 22 kts | 263° |
| 2026-05-08 14:20 | 49.00830 | 2.58323 | 363 ft | 24 kts | 265° |
| 2026-05-08 14:20 | 49.00815 | 2.58051 | 367 ft | 26 kts | 265° |
| 2026-05-08 14:21 | 49.00800 | 2.57765 | 363 ft | 28 kts | 265° |
| 2026-05-08 14:21 | 49.00783 | 2.57456 | 368 ft | 29 kts | 265° |
| 2026-05-08 14:21 | 49.00742 | 2.57242 | 366 ft | 17 kts | 202° |
| 2026-05-08 14:21 | 49.00672 | 2.57102 | 367 ft | 19 kts | 253° |
| 2026-05-08 14:22 | 49.00650 | 2.56893 | 369 ft | 21 kts | 265° |
| 2026-05-08 14:22 | 49.00637 | 2.56654 | 369 ft | 24 kts | 265° |
| 2026-05-08 14:22 | 49.00623 | 2.56390 | 369 ft | 26 kts | 265° |
| 2026-05-08 14:22 | 49.00614 | 2.56250 | 363 ft | 5 kts | 249° |
| 2026-05-08 14:23 | 49.00582 | 2.56234 | 369 ft | 7 kts | 171° |
| 2026-05-08 14:23 | 49.00558 | 2.56239 | 366 ft | 1 kts | 172° |
| 2026-05-08 14:23 | 49.00542 | 2.56243 | 365 ft | 3 kts | 171° |